aviador You're here:

KSHN Decoded Metar

SHELTON in WA, USA
Report Time2017-09-20 19:53:00
UTC Time2017-09-20 20:02:58
Flight Rules mvfr MVFR
WindVRB at 04 kt
Visibility9999 m
Phenomena:N/A
Clouds:Few 013 Hf
Broken 019 Hf
Broken 070 Hf
Expected CloudBase > 1,600 ft AGL from Temp-Dew spread
Ceiling1,900 ft
Temp13°C (ISA -1)
Dew Point09°C (77% RH)
AAT11.4°C
QNH1006 hPa
Density Alt489 ft
Elevation269 ft
Report Wrong Elevation
Raw Report
METAR KSHN 201953Z AUTO VRB04KT 10SM FEW013 BKN019 BKN070 13/09 A2971
RMK AO2 SLP061 T01330089=

Extra information for KSHN:More info

Metar Taf Metar & Taf Last 4 Metars F.Rules Stats Wind Profile Meteogram Temp Stats Airport Information Weather charts Add Link Nearby VenuesMetar ALERT Operation Metar Decoded Social comments

AIRNAV info for KSHN